aviador You're here:

KBTL Decoded Metar

BATTLE CREEK in MI, USA
Report Time2017-03-30 18:06:00
UTC Time2017-03-30 18:30:46
Flight Rules ifr IFR
Wind090° at 13 Gusting to 19 kt
W.Decomp.*RWY 13: 10.5 kt HW 7.6 kt LCW
RWY 05: 9.4 kt HW 9.0 kt RCW
W.Rank090° ranks 33
Current wind is above 090° avg. (5.9)
Visibility9999 m
Phenomena:Light Rain
Clouds:Overcast 009 Hf
Expected CloudBase > 400 ft AGL from Temp-Dew spread
Ceiling900 ft
Temp05°C (ISA -8)
Dew Point04°C (93% RH)
AAT-1.0°C
QNH1008 hPa
Density Alt259 ft
Elevation951 ft
Report Wrong Elevation
Raw Report
KBTL 301806Z 09013G19KT 10SM -RA OVC009 05/04 A2978=

Extra information for KBTL:More info

Metar Taf Metar & Taf Last 4 Metars F.Rules Stats Wind Profile Meteogram Temp Stats Airport Information Weather charts Add Link Nearby VenuesMetar ALERT Operation Metar Decoded Social comments

AIRNAV info for KBTL